CDT,Max TemperatureF,Mean TemperatureF,Min TemperatureF,Max Dew PointF,MeanDew PointF,Min DewpointF,Max Humidity, Mean Humidity, Min Humidity, Max Sea Level PressureIn, Mean Sea Level PressureIn, Min Sea Level PressureIn, Max VisibilityMiles, Mean VisibilityMiles, Min VisibilityMiles, Max Wind SpeedMPH, Mean Wind SpeedMPH, Max Gust SpeedMPH,PrecipitationIn, CloudCover, Events, WindDirDegrees
2013-9-1,78,69,60,66,59,55,94,73,47,30.05,29.97,29.88,10,10,8,31,12,39,0.31,1,Thunderstorm,323
2013-9-2,75,64,53,57,55,52,100,72,47,30.12,30.07,30.02,10,9,3,8,3,,0.00,0,,68
2013-9-3,84,70,55,68,61,54,94,74,54,30.06,30.01,29.97,10,10,10,16,6,21,0.00,0,,132
2013-9-4,87,76,66,70,65,63,94,74,48,30.10,30.06,30.00,10,10,8,13,6,,0.00,0,,121
2013-9-5,86,77,68,70,64,61,88,73,48,30.15,30.10,30.04,10,10,9,23,10,29,0.08,2,Thunderstorm,142
2013-9-6,91,78,64,72,67,61,94,71,49,30.05,29.94,29.84,10,10,10,16,9,21,0.00,0,,136
2013-9-7,84,76,68,73,70,66,94,83,66,29.98,29.91,29.83,10,8,2,14,6,,0.00,0,,50
2013-9-8,87,78,69,73,71,68,100,84,58,29.96,29.87,29.77,10,7,2,16,7,20,0.00,0,,90
2013-9-9,91,78,66,70,66,64,100,69,41,29.86,29.74,29.70,10,8,2,15,8,20,0.00,0,,237
2013-9-10,78,71,64,66,64,61,94,81,54,30.05,29.97,29.87,10,10,8,10,4,,0.00,1,,322
2013-9-11,86,73,60,64,60,54,100,69,33,30.14,30.10,30.05,10,10,6,8,3,,0.00,0,,302
2013-9-12,78,66,55,59,49,43,82,55,29,30.28,30.22,30.14,10,9,0,13,6,18,0.00,0,,1
2013-9-13,75,62,48,52,49,46,94,65,38,30.24,30.16,30.05,10,10,4,12,5,16,0.00,0,,119
2013-9-14,73,64,55,57,52,48,88,65,50,30.05,29.92,29.81,10,10,10,22,10,29,0.00,4,,159
2013-9-15,69,60,51,61,54,48,94,75,64,30.29,30.09,29.81,10,10,10,22,12,26,0.00,6,,2
2013-9-16,69,58,46,54,51,46,100,78,49,30.34,30.26,30.15,10,9,0,16,6,20,0.00,5,,100
2013-9-17,69,63,57,64,58,52,94,85,72,30.15,29.97,29.80,10,9,6,17,12,22,0.00,8,,140
2013-9-18,89,78,66,70,67,64,94,75,49,29.80,29.68,29.61,10,8,3,20,11,26,0.00,1,,152
2013-9-19,78,66,53,66,56,45,88,70,41,30.03,29.82,29.61,10,10,5,31,14,41,0.08,3,Thunderstorm,289
2013-9-20,68,57,46,45,42,37,87,62,33,30.08,30.02,29.98,10,10,3,22,12,32,0.00,0,,292
2013-9-21,78,58,39,52,45,37,93,64,34,30.01,29.91,29.79,10,10,2,18,5,24,0.00,0,,114
2013-9-22,84,70,57,52,50,48,82,51,29,29.80,29.74,29.68,10,10,5,31,14,40,0.00,0,,158
2013-9-23,78,68,57,52,49,46,72,53,34,29.80,29.73,29.67,10,10,10,23,16,32,0.00,1,,139
2013-9-24,73,65,57,59,56,54,100,81,50,29.93,29.88,29.81,10,9,2,10,6,,0.09,3,,337
2013-9-25,78,64,51,59,55,50,100,74,44,29.91,29.81,29.68,10,7,0,24,8,30,0.01,1,,120
2013-9-26,87,74,62,59,57,55,83,59,35,29.73,29.69,29.64,10,10,5,25,16,31,0.00,0,,140
2013-9-27,80,68,57,63,58,52,88,64,45,29.79,29.72,29.68,10,10,8,23,13,29,0.00,1,Thunderstorm,166
2013-9-28,66,58,50,54,44,36,94,66,32,29.98,29.88,29.71,10,10,7,26,15,31,0.00,4,,271
2013-9-29,82,66,50,48,42,37,66,45,24,29.98,29.85,29.74,10,10,10,22,11,31,0.00,0,,188
2013-9-30,84,70,57,52,46,41,67,42,25,29.73,29.65,29.58,10,10,10,23,15,31,0.00,0,,198